createdAt,value
2023-03-13T00:00:01.209Z,60.2
2023-03-13T00:05:01.705Z,53.5
2023-03-13T00:10:01.291Z,48.8
2023-03-13T00:20:01.618Z,37.6
2023-03-13T00:25:01.413Z,40.0
2023-03-13T00:35:06.351Z,38.8
2023-03-13T00:40:01.234Z,51.6
2023-03-13T00:45:01.326Z,55.1
2023-03-13T00:50:01.242Z,62.9
2023-03-13T00:55:01.328Z,60.8
2023-03-13T01:05:01.344Z,37.2
2023-03-13T01:10:01.247Z,46.8
2023-03-13T01:20:01.280Z,48.3
2023-03-13T01:25:01.453Z,51.0
2023-03-13T01:30:01.242Z,61.8
2023-03-13T01:35:01.383Z,60.0
2023-03-13T01:40:01.250Z,57.8
2023-03-13T02:05:02.094Z,49.3
2023-03-13T02:10:02.251Z,51.5
2023-03-13T02:20:02.875Z,45.1
2023-03-13T02:25:01.918Z,47.2
2023-03-13T02:35:01.880Z,50.1
2023-03-13T02:40:01.820Z,54.7
2023-03-13T02:50:02.883Z,63.5
2023-03-13T02:55:02.250Z,62.6
2023-03-13T03:00:02.111Z,61.2
2023-03-13T03:05:07.018Z,61.4
2023-03-13T03:10:02.096Z,60.7
2023-03-13T03:20:01.826Z,58.9
2023-03-13T03:35:06.936Z,57.4
2023-03-13T03:40:01.682Z,52.2
2023-03-13T03:45:02.082Z,55.0
2023-03-13T03:55:06.865Z,58.7
2023-03-13T04:00:01.714Z,59.7
2023-03-13T04:05:01.867Z,64.4
2023-03-13T04:10:02.125Z,61.4
2023-03-13T04:20:01.808Z,59.5
2023-03-13T04:25:07.424Z,57.0
2023-03-13T04:30:07.108Z,58.9
2023-03-13T04:35:01.962Z,59.6
2023-03-13T04:40:02.077Z,56.8
2023-03-13T04:50:07.015Z,57.6
2023-03-13T04:55:03.023Z,58.2
2023-03-13T05:05:03.364Z,63.3
2023-03-13T05:10:01.729Z,61.8
2023-03-13T05:20:03.853Z,59.7
2023-03-13T05:25:02.847Z,58.6
2023-03-13T05:35:01.920Z,60.7
2023-03-13T05:40:02.035Z,57.6
2023-03-13T05:50:02.113Z,59.2
2023-03-13T05:55:06.831Z,59.0
2023-03-13T06:05:02.285Z,63.4
2023-03-13T06:20:01.719Z,69.2
2023-03-13T06:40:01.703Z,80.6
2023-03-13T06:50:01.887Z,65.0
2023-03-13T07:05:02.977Z,65.4
2023-03-13T07:10:02.116Z,66.4
2023-03-13T07:40:01.687Z,64.5
2023-03-13T07:55:03.013Z,59.3
2023-03-13T08:50:02.135Z,76.3
2023-03-13T09:10:03.257Z,77.0
2023-03-13T09:20:02.162Z,73.7
2023-03-13T09:35:02.167Z,70.0
2023-03-13T09:50:12.238Z,69.4
2023-03-13T09:55:02.248Z,70.7
2023-03-13T10:05:02.123Z,71.0
2023-03-13T10:10:13.936Z,73.9
2023-03-13T10:40:01.394Z,57.4
2023-03-13T11:20:03.403Z,59.8
2023-03-13T11:40:01.514Z,48.4
2023-03-13T11:50:01.114Z,54.7
2023-03-13T11:55:01.221Z,51.8
2023-03-13T12:10:01.924Z,41.4
2023-03-13T12:20:01.581Z,49.9
2023-03-13T12:25:06.327Z,49.3
2023-03-13T12:30:01.640Z,58.2
2023-03-13T12:50:02.509Z,74.2
2023-03-13T12:55:02.814Z,68.9
2023-03-13T13:10:01.537Z,87.2
2023-03-13T13:20:02.127Z,75.1
2023-03-13T13:40:02.299Z,100.8
2023-03-13T14:00:03.430Z,104.0
2023-03-13T14:05:03.017Z,94.8
2023-03-13T14:10:06.430Z,103.1
2023-03-13T14:35:01.745Z,73.3
2023-03-13T14:40:01.494Z,70.1
2023-03-13T15:20:01.511Z,83.8
2023-03-13T15:25:12.320Z,65.9
2023-03-13T15:40:06.477Z,69.6
2023-03-13T15:45:01.356Z,75.1
2023-03-13T15:50:01.305Z,89.5
2023-03-13T15:55:02.634Z,94.9
2023-03-13T16:05:01.481Z,123.5
2023-03-13T16:10:01.777Z,131.2
2023-03-13T16:20:01.336Z,145.0
2023-03-13T16:25:01.366Z,146.5
2023-03-13T16:40:02.318Z,139.2
2023-03-13T16:50:01.210Z,132.7
2023-03-13T16:55:01.411Z,136.4
2023-03-13T17:10:06.367Z,147.8
2023-03-13T17:15:01.470Z,154.5
2023-03-13T17:20:01.269Z,163.4
2023-03-13T17:25:01.437Z,176.1
2023-03-13T17:30:01.767Z,177.3
2023-03-13T17:35:02.973Z,191.1
2023-03-13T17:40:01.571Z,194.3
2023-03-13T17:45:01.350Z,186.7
2023-03-13T17:50:01.590Z,173.8
2023-03-13T17:55:01.681Z,165.3
2023-03-13T18:05:01.660Z,142.2
2023-03-13T18:10:01.261Z,140.3
2023-03-13T18:15:01.330Z,146.5
2023-03-13T18:20:01.376Z,156.1
2023-03-13T18:25:01.679Z,155.4
2023-03-13T18:30:01.611Z,160.5
2023-03-13T18:35:01.626Z,154.8
2023-03-13T18:40:01.327Z,163.0
2023-03-13T18:45:02.381Z,169.2
2023-03-13T18:50:01.290Z,174.7
2023-03-13T18:55:02.451Z,171.9
2023-03-13T19:00:01.619Z,185.6
2023-03-13T19:05:01.369Z,174.0
2023-03-13T19:10:01.719Z,164.3
2023-03-13T19:15:01.370Z,160.0
2023-03-13T19:20:01.333Z,163.5
2023-03-13T19:25:01.740Z,156.0
2023-03-13T19:30:01.647Z,162.6
2023-03-13T19:35:01.394Z,159.0
2023-03-13T19:40:01.943Z,157.2
2023-03-13T19:45:01.465Z,141.6
2023-03-13T19:50:01.697Z,130.7
2023-03-13T19:55:05.674Z,114.4
2023-03-13T20:00:01.714Z,103.5
2023-03-13T20:05:01.440Z,85.7
2023-03-13T20:10:01.681Z,79.7
2023-03-13T20:15:01.542Z,75.1
2023-03-13T20:20:01.509Z,71.3
2023-03-13T20:25:02.735Z,70.9
2023-03-13T20:30:01.391Z,79.4
2023-03-13T20:35:02.057Z,80.4
2023-03-13T20:40:02.379Z,87.7
2023-03-13T20:45:01.314Z,99.9
2023-03-13T20:50:01.316Z,110.5
2023-03-13T20:55:01.404Z,109.6
2023-03-13T21:00:01.327Z,114.2
2023-03-13T21:05:06.573Z,110.9
2023-03-13T21:10:01.351Z,105.2
2023-03-13T21:15:01.772Z,116.7
2023-03-13T21:20:01.924Z,115.1
2023-03-13T21:25:01.473Z,116.9
2023-03-13T21:30:01.628Z,115.8
2023-03-13T21:35:01.682Z,114.4
2023-03-13T21:40:01.658Z,93.7
2023-03-13T21:45:06.625Z,94.0
2023-03-13T21:50:01.641Z,94.3
2023-03-13T21:55:01.747Z,96.1
2023-03-13T22:00:01.306Z,114.8
2023-03-13T22:05:01.770Z,122.4
2023-03-13T22:10:06.365Z,125.3
2023-03-13T22:15:01.643Z,124.3
2023-03-13T22:20:11.294Z,129.5
2023-03-13T22:25:01.418Z,112.8
2023-03-13T22:30:01.299Z,115.0
2023-03-13T22:35:01.849Z,125.0
2023-03-13T22:40:01.605Z,137.6
2023-03-13T22:45:01.357Z,139.3
2023-03-13T22:50:01.322Z,152.1
2023-03-13T22:55:01.467Z,157.3
2023-03-13T23:00:01.286Z,154.9
2023-03-13T23:05:02.635Z,151.8
2023-03-13T23:10:01.310Z,149.9
2023-03-13T23:15:01.664Z,138.7
2023-03-13T23:20:01.355Z,142.6
2023-03-13T23:25:01.802Z,142.8
2023-03-13T23:30:01.273Z,142.1
2023-03-13T23:35:02.581Z,141.3
2023-03-13T23:40:01.294Z,144.2
2023-03-13T23:45:01.732Z,131.6
2023-03-13T23:50:01.248Z,124.3
2023-03-13T23:55:01.513Z,130.1
